Time;durP1;ratioP1;P1;durP2;ratioP2;P2;SDS_P1;SDS_P2;PMS_P1;PMS_P2;Temp;Humidity;BMP_temperature;BMP_pressure;BME280_temperature;BME280_humidity;BME280_pressure;Samples;Min_cycle;Max_cycle;Signal;HPM_P1;HPM_P2
2022/10/16 00:00:30;;;;;;;5.07;3.95;;;;;;;;;;5056391;28;20036;-71
2022/10/16 00:02:56;;;;;;;7.30;4.32;;;;;;;;;;5056432;28;20021;-70
2022/10/16 00:05:21;;;;;;;5.88;4.30;;;;;;;;;;5056073;28;20376;-66
2022/10/16 00:07:46;;;;;;;10.07;4.57;;;;;;;;;;5056027;28;20326;-72
2022/10/16 00:10:12;;;;;;;7.75;4.43;;;;;;;;;;5056263;28;20021;-71
2022/10/16 00:12:37;;;;;;;6.80;4.38;;;;;;;;;;5056196;28;20485;-72
2022/10/16 00:15:03;;;;;;;9.48;4.80;;;;;;;;;;5056103;28;20526;-72
2022/10/16 00:17:29;;;;;;;5.28;4.68;;;;;;;;;;5055763;28;20025;-73
2022/10/16 00:19:54;;;;;;;5.93;4.32;;;;;;;;;;5056068;28;20091;-71
2022/10/16 00:22:20;;;;;;;5.72;4.55;;;;;;;;;;5056022;28;20491;-71
2022/10/16 00:24:45;;;;;;;5.88;4.47;;;;;;;;;;5055758;28;20034;-72
2022/10/16 00:27:10;;;;;;;5.30;4.53;;;;;;;;;;5055941;28;20063;-71
2022/10/16 00:29:36;;;;;;;8.10;4.80;;;;;;;;;;5055637;28;20071;-70
2022/10/16 00:32:01;;;;;;;6.75;4.50;;;;;;;;;;5055563;28;20103;-71
2022/10/16 00:34:26;;;;;;;7.57;4.15;;;;;;;;;;5055447;28;20175;-70
2022/10/16 00:36:52;;;;;;;7.25;4.25;;;;;;;;;;5055440;28;20036;-70
2022/10/16 00:39:17;;;;;;;7.93;4.20;;;;;;;;;;5055691;28;20032;-69
2022/10/16 00:41:43;;;;;;;6.70;4.60;;;;;;;;;;5055390;28;20560;-71
2022/10/16 00:44:42;;;;;;;8.18;4.75;;;;;;;;;;5055348;28;20029;-71
2022/10/16 00:47:12;;;;;;;6.53;4.28;;;;;;;;;;5055265;28;20051;-71
2022/10/16 00:49:38;;;;;;;5.47;4.38;;;;;;;;;;5055471;28;20098;-63
2022/10/16 00:52:05;;;;;;;7.05;4.40;;;;;;;;;;5054227;28;20021;-71
2022/10/16 00:54:32;;;;;;;6.45;4.50;;;;;;;;;;5055467;28;20033;-71
2022/10/16 00:57:04;;;;;;;6.65;4.95;;;;;;;;;;5054820;28;20053;-70
2022/10/16 00:59:37;;;;;;;9.73;4.57;;;;;;;;;;5055035;28;20493;-71
2022/10/16 01:02:04;;;;;;;5.32;4.53;;;;;;;;;;5055330;28;20136;-69
2022/10/16 01:04:45;;;;;;;6.45;4.28;;;;;;;;;;5055059;28;20032;-71
2022/10/16 01:07:24;;;;;;;7.85;4.30;;;;;;;;;;5054864;28;20071;-70
2022/10/16 01:10:01;;;;;;;6.00;4.68;;;;;;;;;;5055229;28;20033;-71
2022/10/16 01:12:45;;;;;;;7.03;4.90;;;;;;;;;;5055060;28;20377;-70
2022/10/16 01:15:14;;;;;;;6.55;4.80;;;;;;;;;;5053581;28;20481;-69
2022/10/16 01:17:51;;;;;;;6.90;4.63;;;;;;;;;;5054587;28;20123;-67
2022/10/16 01:20:28;;;;;;;8.75;4.53;;;;;;;;;;5055024;28;20150;-64
2022/10/16 01:23:19;;;;;;;6.70;4.75;;;;;;;;;;5054885;28;20029;-67
2022/10/16 01:25:53;;;;;;;8.38;4.30;;;;;;;;;;5054803;28;20024;-65
2022/10/16 01:28:27;;;;;;;8.35;4.72;;;;;;;;;;5054612;28;20082;-69
2022/10/16 01:30:57;;;;;;;10.63;4.40;;;;;;;;;;5055048;28;20025;-69
2022/10/16 01:33:39;;;;;;;8.43;4.55;;;;;;;;;;5054473;28;20053;-68
2022/10/16 01:36:18;;;;;;;7.25;5.00;;;;;;;;;;5054361;28;20504;-66
2022/10/16 01:38:47;;;;;;;5.95;4.38;;;;;;;;;;5054334;28;20467;-69
2022/10/16 01:41:24;;;;;;;8.77;5.50;;;;;;;;;;5054294;28;20469;-66
2022/10/16 01:43:59;;;;;;;5.55;4.60;;;;;;;;;;5054538;28;20115;-69
2022/10/16 01:46:26;;;;;;;8.85;5.38;;;;;;;;;;5054220;28;20029;-66
2022/10/16 01:48:52;;;;;;;7.50;4.90;;;;;;;;;;5054391;28;20075;-68
2022/10/16 01:51:20;;;;;;;5.18;4.28;;;;;;;;;;5054392;28;20074;-69
2022/10/16 01:53:50;;;;;;;6.70;4.38;;;;;;;;;;5054077;28;20071;-66
2022/10/16 01:56:17;;;;;;;5.72;4.53;;;;;;;;;;5053908;28;20115;-70
2022/10/16 01:59:14;;;;;;;7.63;4.90;;;;;;;;;;5054123;28;20032;-67
2022/10/16 02:01:45;;;;;;;5.00;4.50;;;;;;;;;;5052769;28;20036;-69
2022/10/16 02:04:37;;;;;;;7.57;4.70;;;;;;;;;;5053896;28;20033;-70
2022/10/16 02:07:03;;;;;;;7.13;4.90;;;;;;;;;;5053562;28;20140;-63
2022/10/16 02:09:30;;;;;;;6.07;4.50;;;;;;;;;;5054564;28;20043;-63
2022/10/16 02:11:59;;;;;;;5.43;4.60;;;;;;;;;;5054167;28;20031;-70
2022/10/16 02:14:26;;;;;;;6.15;4.70;;;;;;;;;;5053969;28;20568;-67
2022/10/16 02:16:51;;;;;;;5.60;4.40;;;;;;;;;;5053178;28;20250;-67
2022/10/16 02:19:19;;;;;;;6.43;4.85;;;;;;;;;;5053536;28;20151;-66
2022/10/16 02:21:53;;;;;;;6.10;4.55;;;;;;;;;;5053501;28;20029;-68
2022/10/16 02:24:56;;;;;;;7.72;4.75;;;;;;;;;;5053439;28;20477;-68
2022/10/16 02:27:33;;;;;;;8.15;4.45;;;;;;;;;;5053324;28;20103;-66
2022/10/16 02:30:13;;;;;;;8.70;4.75;;;;;;;;;;5053701;28;20425;-65
2022/10/16 02:32:42;;;;;;;5.75;4.55;;;;;;;;;;5053261;28;20457;-64
2022/10/16 02:35:08;;;;;;;8.02;4.90;;;;;;;;;;5053524;28;20047;-68
2022/10/16 02:37:35;;;;;;;7.03;4.65;;;;;;;;;;5053440;28;20029;-68
2022/10/16 02:40:05;;;;;;;8.02;4.80;;;;;;;;;;5053143;28;20027;-70
2022/10/16 02:42:39;;;;;;;5.03;4.30;;;;;;;;;;5053705;28;20025;-68
2022/10/16 02:45:07;;;;;;;6.32;4.53;;;;;;;;;;5053469;28;20029;-66
2022/10/16 02:47:32;;;;;;;5.68;4.70;;;;;;;;;;5052940;28;20042;-66
2022/10/16 02:49:57;;;;;;;6.45;4.80;;;;;;;;;;5053222;28;20033;-70
2022/10/16 02:52:23;;;;;;;5.68;4.80;;;;;;;;;;5053147;28;20043;-67
2022/10/16 02:54:48;;;;;;;7.43;4.47;;;;;;;;;;5052954;28;20025;-71
2022/10/16 02:57:14;;;;;;;7.03;4.82;;;;;;;;;;5051475;28;20120;-70
2022/10/16 02:59:39;;;;;;;6.07;4.53;;;;;;;;;;5052765;28;20029;-67
2022/10/16 03:02:05;;;;;;;6.00;4.82;;;;;;;;;;5052999;28;20116;-68
2022/10/16 03:04:30;;;;;;;6.85;5.00;;;;;;;;;;5053229;28;20106;-69
2022/10/16 03:06:55;;;;;;;7.97;5.35;;;;;;;;;;5053006;28;20416;-67
2022/10/16 03:09:21;;;;;;;6.43;4.53;;;;;;;;;;5052701;28;20021;-66
2022/10/16 03:11:46;;;;;;;7.65;4.80;;;;;;;;;;5052603;28;20033;-69
2022/10/16 03:14:12;;;;;;;6.35;4.68;;;;;;;;;;5052856;28;20031;-70
2022/10/16 03:16:37;;;;;;;6.18;4.43;;;;;;;;;;5052486;28;20488;-66
2022/10/16 03:19:02;;;;;;;5.70;4.32;;;;;;;;;;5052683;28;20032;-71
2022/10/16 03:21:28;;;;;;;7.10;4.63;;;;;;;;;;5052482;28;20362;-71
2022/10/16 03:23:53;;;;;;;5.47;4.63;;;;;;;;;;5052677;28;20021;-67
2022/10/16 03:26:21;;;;;;;8.50;4.18;;;;;;;;;;5052396;28;20024;-66
2022/10/16 03:28:47;;;;;;;8.60;4.60;;;;;;;;;;5051421;28;20094;-68
2022/10/16 03:31:12;;;;;;;6.40;5.15;;;;;;;;;;5052577;28;20029;-66
2022/10/16 03:33:38;;;;;;;8.77;4.75;;;;;;;;;;5052275;28;20469;-70
2022/10/16 03:36:03;;;;;;;5.25;4.75;;;;;;;;;;5052598;28;20035;-69
2022/10/16 03:38:29;;;;;;;6.43;4.55;;;;;;;;;;5051048;28;20060;-70
2022/10/16 03:40:54;;;;;;;7.97;5.15;;;;;;;;;;5052601;28;20029;-71
2022/10/16 03:43:20;;;;;;;8.38;5.30;;;;;;;;;;5052522;28;20416;-70
2022/10/16 03:45:45;;;;;;;8.48;4.90;;;;;;;;;;5052527;28;20017;-70
2022/10/16 03:48:10;;;;;;;6.55;4.63;;;;;;;;;;5052170;28;20081;-70
2022/10/16 03:50:36;;;;;;;6.45;4.88;;;;;;;;;;5052071;28;20086;-71
2022/10/16 03:53:03;;;;;;;7.30;5.00;;;;;;;;;;5052177;28;20078;-68
2022/10/16 03:55:28;;;;;;;6.25;5.00;;;;;;;;;;5051914;28;20045;-67
2022/10/16 03:57:53;;;;;;;8.50;5.35;;;;;;;;;;5051960;28;20032;-67
2022/10/16 04:00:19;;;;;;;6.57;5.15;;;;;;;;;;5052156;28;20358;-66
2022/10/16 04:02:44;;;;;;;6.40;4.70;;;;;;;;;;5052354;28;20104;-68
2022/10/16 04:05:10;;;;;;;8.27;5.35;;;;;;;;;;5052267;28;20035;-68
2022/10/16 04:07:36;;;;;;;7.28;4.82;;;;;;;;;;5052029;28;20469;-69
2022/10/16 04:10:01;;;;;;;5.95;4.78;;;;;;;;;;5051904;28;20067;-66
2022/10/16 04:12:27;;;;;;;6.60;5.55;;;;;;;;;;5052228;28;20029;-67
2022/10/16 04:14:52;;;;;;;6.68;5.28;;;;;;;;;;5052326;28;20472;-71
2022/10/16 04:17:18;;;;;;;7.55;5.22;;;;;;;;;;5051735;28;20082;-67
2022/10/16 04:19:43;;;;;;;6.22;5.00;;;;;;;;;;5052224;28;20032;-70
2022/10/16 04:22:09;;;;;;;7.93;5.63;;;;;;;;;;5052110;28;20025;-69
2022/10/16 04:24:34;;;;;;;6.05;5.20;;;;;;;;;;5051808;28;20111;-70
2022/10/16 04:27:00;;;;;;;9.18;5.18;;;;;;;;;;5052138;28;20116;-67
2022/10/16 04:29:25;;;;;;;10.10;5.47;;;;;;;;;;5051735;28;20457;-69
2022/10/16 04:31:51;;;;;;;8.23;5.25;;;;;;;;;;5051791;28;20029;-71
2022/10/16 04:34:16;;;;;;;8.32;5.38;;;;;;;;;;5052141;28;20013;-66
2022/10/16 04:36:41;;;;;;;5.97;5.03;;;;;;;;;;5051890;28;20028;-67
2022/10/16 04:39:07;;;;;;;5.93;5.00;;;;;;;;;;5053030;28;20021;-65
2022/10/16 04:41:32;;;;;;;6.95;5.35;;;;;;;;;;5055438;28;20060;-66
2022/10/16 04:43:57;;;;;;;7.57;4.82;;;;;;;;;;5055327;28;20029;-64
2022/10/16 04:46:23;;;;;;;7.18;5.20;;;;;;;;;;5055702;28;20108;-66
2022/10/16 04:48:48;;;;;;;7.18;5.35;;;;;;;;;;5055594;28;20411;-71
2022/10/16 04:51:14;;;;;;;6.68;5.13;;;;;;;;;;5055241;28;20055;-70
2022/10/16 04:53:39;;;;;;;6.13;5.40;;;;;;;;;;5055316;28;20549;-71
2022/10/16 04:56:05;;;;;;;5.97;4.97;;;;;;;;;;5054820;28;20041;-71
2022/10/16 04:58:30;;;;;;;7.18;5.68;;;;;;;;;;5055345;28;20103;-71
2022/10/16 05:00:55;;;;;;;5.97;4.90;;;;;;;;;;5054986;28;20465;-70
2022/10/16 05:03:21;;;;;;;7.63;5.25;;;;;;;;;;5055253;28;20025;-68
2022/10/16 05:05:47;;;;;;;7.85;5.20;;;;;;;;;;5055008;28;20068;-66
2022/10/16 05:08:16;;;;;;;7.45;5.40;;;;;;;;;;5055505;28;20030;-66
2022/10/16 05:10:43;;;;;;;7.90;5.00;;;;;;;;;;5054811;28;20402;-70
2022/10/16 05:13:09;;;;;;;6.88;5.30;;;;;;;;;;5055114;28;20027;-70
2022/10/16 05:15:34;;;;;;;6.45;5.38;;;;;;;;;;5054784;28;20119;-72
2022/10/16 05:18:00;;;;;;;8.43;5.18;;;;;;;;;;5054643;28;20025;-72
2022/10/16 05:20:25;;;;;;;7.80;5.28;;;;;;;;;;5054710;28;20025;-72
2022/10/16 05:22:51;;;;;;;6.75;5.35;;;;;;;;;;5054990;28;20018;-63
2022/10/16 05:25:17;;;;;;;6.90;5.60;;;;;;;;;;5054929;28;20531;-69
2022/10/16 05:27:42;;;;;;;7.55;5.35;;;;;;;;;;5054900;28;20052;-63
2022/10/16 05:30:08;;;;;;;9.25;5.32;;;;;;;;;;5054770;28;20025;-62
2022/10/16 05:32:34;;;;;;;7.30;4.85;;;;;;;;;;5054814;28;20029;-67
2022/10/16 05:34:59;;;;;;;5.72;4.63;;;;;;;;;;5054754;28;20468;-68
2022/10/16 05:37:26;;;;;;;5.50;4.97;;;;;;;;;;5054589;28;20025;-71
2022/10/16 05:39:52;;;;;;;7.10;5.30;;;;;;;;;;5054696;28;20028;-68
2022/10/16 05:42:17;;;;;;;8.15;5.68;;;;;;;;;;5054603;28;20368;-67
2022/10/16 05:44:43;;;;;;;6.88;4.97;;;;;;;;;;5054560;28;20025;-72
2022/10/16 05:47:08;;;;;;;8.10;5.43;;;;;;;;;;5054604;28;20071;-71
2022/10/16 05:49:33;;;;;;;6.88;5.35;;;;;;;;;;5054416;28;20025;-69
2022/10/16 05:51:59;;;;;;;8.75;5.60;;;;;;;;;;5053131;28;20029;-69
2022/10/16 05:54:24;;;;;;;6.13;5.32;;;;;;;;;;5054061;28;20035;-64
2022/10/16 05:56:50;;;;;;;6.53;5.40;;;;;;;;;;5053840;28;20124;-70
2022/10/16 05:59:15;;;;;;;9.52;5.30;;;;;;;;;;5054266;28;20027;-67
2022/10/16 06:01:41;;;;;;;10.88;5.25;;;;;;;;;;5054005;28;20103;-66
2022/10/16 06:04:09;;;;;;;10.15;5.90;;;;;;;;;;5054139;28;20021;-64
2022/10/16 06:06:36;;;;;;;7.55;5.20;;;;;;;;;;5054138;28;20468;-66
2022/10/16 06:09:01;;;;;;;10.63;5.60;;;;;;;;;;5053797;28;20157;-65
2022/10/16 06:11:30;;;;;;;7.32;5.22;;;;;;;;;;5054061;28;20047;-68
2022/10/16 06:13:57;;;;;;;11.05;5.22;;;;;;;;;;5053714;28;20493;-68
2022/10/16 06:16:24;;;;;;;8.27;5.22;;;;;;;;;;5053934;28;20036;-65
2022/10/16 06:18:54;;;;;;;7.15;5.03;;;;;;;;;;5053828;28;20060;-67
2022/10/16 06:21:25;;;;;;;6.80;5.30;;;;;;;;;;5053866;28;20033;-65
2022/10/16 06:23:50;;;;;;;8.32;5.50;;;;;;;;;;5053487;28;20040;-72
2022/10/16 06:26:18;;;;;;;6.60;5.30;;;;;;;;;;5053743;28;20025;-70
2022/10/16 06:28:44;;;;;;;7.75;5.38;;;;;;;;;;5053621;28;20381;-71
2022/10/16 06:31:11;;;;;;;9.07;5.15;;;;;;;;;;5053661;28;20017;-72
2022/10/16 06:33:37;;;;;;;7.22;5.63;;;;;;;;;;5053579;28;20103;-72
2022/10/16 06:36:04;;;;;;;8.18;5.72;;;;;;;;;;5053098;28;20111;-71
2022/10/16 06:38:30;;;;;;;7.47;5.32;;;;;;;;;;5053033;28;20025;-71
2022/10/16 06:40:56;;;;;;;7.70;5.53;;;;;;;;;;5053356;28;20021;-71
2022/10/16 06:43:22;;;;;;;9.50;5.10;;;;;;;;;;5053098;28;20021;-72
2022/10/16 06:45:54;;;;;;;9.05;6.05;;;;;;;;;;5053141;28;20453;-71
2022/10/16 06:48:20;;;;;;;7.75;5.70;;;;;;;;;;5053016;28;20037;-71
2022/10/16 06:50:59;;;;;;;6.18;5.40;;;;;;;;;;5053028;28;20462;-72
2022/10/16 06:53:26;;;;;;;10.07;5.72;;;;;;;;;;5053193;28;20025;-67
2022/10/16 06:55:51;;;;;;;6.15;5.25;;;;;;;;;;5052871;28;20041;-71
2022/10/16 06:58:17;;;;;;;7.25;5.20;;;;;;;;;;5052727;28;20377;-71
2022/10/16 07:00:43;;;;;;;7.72;5.43;;;;;;;;;;5052889;28;20028;-72
2022/10/16 07:03:08;;;;;;;6.82;4.93;;;;;;;;;;5052761;28;20037;-65
2022/10/16 07:05:41;;;;;;;8.70;5.25;;;;;;;;;;5052715;28;20063;-72
2022/10/16 07:08:08;;;;;;;8.95;5.68;;;;;;;;;;5052752;28;20025;-72
2022/10/16 07:10:34;;;;;;;8.55;5.50;;;;;;;;;;5052943;28;20415;-73
2022/10/16 07:12:59;;;;;;;11.43;5.40;;;;;;;;;;5052642;28;20044;-73
2022/10/16 07:15:25;;;;;;;6.28;5.40;;;;;;;;;;5052632;28;20151;-72
2022/10/16 07:17:51;;;;;;;7.68;5.38;;;;;;;;;;5052472;28;20036;-72
2022/10/16 07:20:16;;;;;;;8.20;5.82;;;;;;;;;;5052529;28;20024;-73
2022/10/16 07:22:42;;;;;;;8.07;5.35;;;;;;;;;;5052751;28;20021;-72
2022/10/16 07:25:07;;;;;;;9.38;5.45;;;;;;;;;;5052801;28;20025;-73
2022/10/16 07:27:33;;;;;;;7.50;5.45;;;;;;;;;;5052844;28;20550;-74
2022/10/16 07:29:58;;;;;;;8.38;5.10;;;;;;;;;;5052709;28;20479;-72
2022/10/16 07:32:25;;;;;;;5.13;4.50;;;;;;;;;;5052643;28;20025;-72
2022/10/16 07:34:51;;;;;;;8.98;5.32;;;;;;;;;;5052391;28;20079;-73
2022/10/16 07:37:16;;;;;;;7.72;5.10;;;;;;;;;;5051975;28;20481;-72
2022/10/16 07:39:42;;;;;;;7.70;5.43;;;;;;;;;;5052530;28;20096;-73
2022/10/16 07:42:08;;;;;;;9.93;5.28;;;;;;;;;;5051001;28;20366;-73
2022/10/16 07:44:34;;;;;;;6.03;4.80;;;;;;;;;;5050633;28;20021;-72
2022/10/16 07:46:59;;;;;;;5.43;4.30;;;;;;;;;;5050930;28;20031;-73
2022/10/16 07:49:24;;;;;;;5.45;4.68;;;;;;;;;;5050757;28;20476;-72
2022/10/16 07:51:50;;;;;;;8.55;4.72;;;;;;;;;;5051044;28;20120;-73
2022/10/16 07:54:15;;;;;;;9.13;4.93;;;;;;;;;;5050711;28;20036;-65
2022/10/16 07:56:40;;;;;;;7.78;4.50;;;;;;;;;;5050698;28;20037;-63
2022/10/16 07:59:06;;;;;;;7.97;4.65;;;;;;;;;;5050883;28;20037;-69
2022/10/16 08:01:31;;;;;;;8.63;5.10;;;;;;;;;;5051031;28;20055;-73
2022/10/16 08:03:57;;;;;;;7.53;4.68;;;;;;;;;;5050686;28;20017;-72
2022/10/16 08:06:22;;;;;;;7.15;4.60;;;;;;;;;;5050763;28;20025;-72
2022/10/16 08:08:48;;;;;;;9.45;4.70;;;;;;;;;;5050956;28;20081;-69
2022/10/16 08:11:14;;;;;;;8.18;4.40;;;;;;;;;;5050909;28;20021;-72
2022/10/16 08:13:40;;;;;;;8.13;4.50;;;;;;;;;;5052635;28;20155;-72
2022/10/16 08:16:07;;;;;;;5.40;4.70;;;;;;;;;;5055397;28;20017;-71
2022/10/16 08:18:34;;;;;;;7.65;4.28;;;;;;;;;;5055494;28;20099;-68
2022/10/16 08:21:00;;;;;;;7.13;4.75;;;;;;;;;;5055640;28;20021;-72
2022/10/16 08:23:26;;;;;;;7.05;4.18;;;;;;;;;;5055526;28;20027;-73
2022/10/16 08:25:56;;;;;;;5.97;4.55;;;;;;;;;;5055418;28;20103;-69
2022/10/16 08:28:22;;;;;;;5.30;4.45;;;;;;;;;;5055224;28;20025;-70
2022/10/16 08:30:47;;;;;;;4.78;4.22;;;;;;;;;;5055195;28;20025;-69
2022/10/16 08:33:13;;;;;;;5.38;4.40;;;;;;;;;;5055402;28;20027;-71
2022/10/16 08:35:38;;;;;;;6.60;4.57;;;;;;;;;;5055520;28;20470;-69
2022/10/16 08:38:06;;;;;;;8.05;4.30;;;;;;;;;;5055307;28;20051;-68
2022/10/16 08:40:34;;;;;;;9.20;4.53;;;;;;;;;;5055748;28;20027;-63
2022/10/16 08:43:28;;;;;;;6.60;4.28;;;;;;;;;;5055329;28;20021;-73
2022/10/16 08:46:02;;;;;;;8.55;5.35;;;;;;;;;;5055764;28;20056;-65
2022/10/16 08:48:52;;;;;;;6.53;4.10;;;;;;;;;;5055321;28;20021;-64
2022/10/16 08:51:20;;;;;;;7.05;4.47;;;;;;;;;;5055248;28;20037;-69
2022/10/16 08:53:53;;;;;;;6.10;4.53;;;;;;;;;;5055460;28;20036;-72
2022/10/16 08:56:19;;;;;;;13.13;4.50;;;;;;;;;;5055001;28;20068;-71
2022/10/16 08:58:46;;;;;;;4.60;3.67;;;;;;;;;;5055026;28;20072;-72
2022/10/16 09:01:15;;;;;;;8.10;4.80;;;;;;;;;;5055366;28;20044;-71
2022/10/16 09:04:18;;;;;;;5.35;4.43;;;;;;;;;;5053089;28;20029;-71
2022/10/16 09:06:50;;;;;;;4.40;4.00;;;;;;;;;;5053788;28;20021;-72
2022/10/16 09:09:40;;;;;;;8.38;4.13;;;;;;;;;;5052883;28;20020;-69
2022/10/16 09:12:33;;;;;;;5.40;4.22;;;;;;;;;;5049652;28;20033;-65
2022/10/16 09:15:20;;;;;;;6.70;4.03;;;;;;;;;;5051993;28;20087;-65
2022/10/16 09:18:15;;;;;;;7.40;4.10;;;;;;;;;;5051865;28;20033;-70
2022/10/16 09:20:57;;;;;;;10.30;4.57;;;;;;;;;;5052541;28;20036;-63
2022/10/16 09:23:29;;;;;;;5.28;4.13;;;;;;;;;;5047796;28;20100;-72
2022/10/16 09:25:56;;;;;;;7.45;3.88;;;;;;;;;;5054921;28;20051;-74
2022/10/16 09:28:21;;;;;;;4.07;3.72;;;;;;;;;;5054639;28;20037;-72
2022/10/16 09:30:51;;;;;;;9.93;4.78;;;;;;;;;;5049206;28;20025;-69
2022/10/16 09:33:20;;;;;;;7.13;4.67;;;;;;;;;;5035009;28;20029;-69
2022/10/16 09:35:50;;;;;;;8.13;4.75;;;;;;;;;;5034662;28;20037;-65
2022/10/16 09:38:23;;;;;;;;;;;;;;;;;;5035224;28;20133;-70
2022/10/16 09:40:49;;;;;;;5.88;3.80;;;;;;;;;;5034427;28;19913;-67
2022/10/16 09:43:20;;;;;;;6.15;4.10;;;;;;;;;;5034443;28;20025;-67
2022/10/16 09:46:03;;;;;;;6.28;4.30;;;;;;;;;;5045360;28;20033;-65
2022/10/16 09:48:38;;;;;;;5.30;4.30;;;;;;;;;;5054254;28;20021;-72
2022/10/16 09:51:07;;;;;;;6.10;3.92;;;;;;;;;;5054375;28;20071;-66
2022/10/16 09:53:43;;;;;;;5.25;4.00;;;;;;;;;;5054108;28;20155;-66
2022/10/16 09:56:21;;;;;;;5.88;4.25;;;;;;;;;;5053137;28;20040;-71
2022/10/16 09:58:51;;;;;;;5.80;4.05;;;;;;;;;;5053397;28;20024;-71
2022/10/16 10:01:17;;;;;;;5.63;4.18;;;;;;;;;;5052327;28;20469;-71
2022/10/16 10:03:43;;;;;;;5.95;3.92;;;;;;;;;;5052810;28;20036;-71
2022/10/16 10:06:55;;;;;;;7.60;4.00;;;;;;;;;;5052259;28;20032;-72
2022/10/16 10:09:47;;;;;;;4.95;3.78;;;;;;;;;;5052033;28;20094;-71
2022/10/16 10:12:25;;;;;;;7.32;4.40;;;;;;;;;;5053509;28;20029;-71
2022/10/16 10:14:52;;;;;;;7.93;4.50;;;;;;;;;;5054003;28;20120;-72
2022/10/16 10:17:21;;;;;;;6.70;4.15;;;;;;;;;;5053881;28;20029;-70
2022/10/16 10:19:49;;;;;;;5.43;3.95;;;;;;;;;;5053825;28;20025;-71
2022/10/16 10:22:41;;;;;;;6.28;3.83;;;;;;;;;;5053505;28;20032;-72
2022/10/16 10:25:13;;;;;;;6.70;3.95;;;;;;;;;;5053825;28;20124;-72
2022/10/16 10:27:57;;;;;;;6.65;4.25;;;;;;;;;;5053384;28;20561;-72
2022/10/16 10:30:29;;;;;;;4.63;3.63;;;;;;;;;;5053400;28;20065;-71
2022/10/16 10:33:24;;;;;;;5.28;3.80;;;;;;;;;;5053342;28;20556;-71
2022/10/16 10:36:11;;;;;;;5.03;3.75;;;;;;;;;;5053612;28;20095;-71
2022/10/16 10:38:49;;;;;;;7.47;3.85;;;;;;;;;;5053022;28;20029;-71
2022/10/16 10:41:20;;;;;;;4.82;3.78;;;;;;;;;;5053376;28;20033;-72
2022/10/16 10:44:07;;;;;;;6.75;4.00;;;;;;;;;;5053398;28;20055;-71
2022/10/16 10:46:41;;;;;;;6.10;4.68;;;;;;;;;;5053392;28;20025;-69
2022/10/16 10:49:25;;;;;;;5.22;3.97;;;;;;;;;;5053120;28;20037;-70
2022/10/16 10:52:01;;;;;;;8.98;3.70;;;;;;;;;;5053046;28;20025;-67
2022/10/16 10:54:50;;;;;;;5.30;4.20;;;;;;;;;;5052935;28;20427;-64
2022/10/16 10:57:28;;;;;;;4.82;4.00;;;;;;;;;;5053201;28;20488;-71
2022/10/16 11:00:04;;;;;;;8.07;3.88;;;;;;;;;;5052829;28;20021;-71
2022/10/16 11:02:40;;;;;;;5.35;3.92;;;;;;;;;;5052847;28;20465;-71
2022/10/16 11:05:08;;;;;;;6.70;3.50;;;;;;;;;;5052814;28;20025;-67
2022/10/16 11:07:43;;;;;;;5.10;3.72;;;;;;;;;;5052790;28;20025;-70
2022/10/16 11:10:58;;;;;;;5.65;3.83;;;;;;;;;;5052776;28;20024;-66
2022/10/16 11:13:30;;;;;;;6.50;3.80;;;;;;;;;;5050576;28;20044;-70
2022/10/16 11:16:01;;;;;;;5.18;3.70;;;;;;;;;;5052963;28;20036;-67
2022/10/16 11:19:05;;;;;;;8.18;4.07;;;;;;;;;;5052849;28;20025;-68
2022/10/16 11:21:41;;;;;;;5.13;3.55;;;;;;;;;;5051168;28;20063;-69
2022/10/16 11:24:19;;;;;;;6.93;3.42;;;;;;;;;;5052885;28;20052;-70
2022/10/16 11:26:46;;;;;;;7.88;3.75;;;;;;;;;;5052725;28;20025;-66
2022/10/16 11:29:29;;;;;;;7.03;3.72;;;;;;;;;;5052716;28;20376;-68
2022/10/16 11:32:00;;;;;;;6.40;3.90;;;;;;;;;;5052709;28;20029;-66
2022/10/16 11:34:28;;;;;;;6.72;4.05;;;;;;;;;;5052693;28;20017;-69
2022/10/16 11:37:15;;;;;;;6.07;4.00;;;;;;;;;;5052606;28;20440;-68
2022/10/16 11:39:43;;;;;;;5.68;3.80;;;;;;;;;;5052631;28;20030;-66
2022/10/16 11:42:19;;;;;;;4.18;3.75;;;;;;;;;;5051406;28;20045;-67
2022/10/16 11:44:54;;;;;;;7.82;3.67;;;;;;;;;;5052540;28;20029;-67
2022/10/16 11:47:22;;;;;;;4.65;3.72;;;;;;;;;;5052519;28;20064;-70
2022/10/16 11:49:55;;;;;;;6.82;3.63;;;;;;;;;;5054720;28;20033;-66
2022/10/16 11:52:44;;;;;;;6.55;3.75;;;;;;;;;;5056755;28;20110;-68
2022/10/16 11:55:26;;;;;;;5.77;3.67;;;;;;;;;;5056366;28;20021;-66
2022/10/16 11:58:19;;;;;;;8.90;3.90;;;;;;;;;;5056511;28;20055;-66
2022/10/16 12:00:56;;;;;;;6.05;3.70;;;;;;;;;;5055982;28;20083;-66
2022/10/16 12:03:26;;;;;;;5.15;3.72;;;;;;;;;;5056454;28;20029;-67
2022/10/16 12:05:57;;;;;;;5.40;4.07;;;;;;;;;;5056770;28;20056;-68
2022/10/16 12:08:23;;;;;;;9.93;3.80;;;;;;;;;;5056365;28;20392;-70
2022/10/16 12:10:48;;;;;;;5.00;3.30;;;;;;;;;;5056032;28;20521;-68
2022/10/16 12:13:49;;;;;;;6.07;3.80;;;;;;;;;;5056332;28;20103;-69
2022/10/16 12:16:15;;;;;;;4.18;3.78;;;;;;;;;;5033632;28;20116;-65
2022/10/16 12:18:43;;;;;;;7.18;3.67;;;;;;;;;;5051091;28;20131;-69
2022/10/16 12:21:10;;;;;;;4.03;3.58;;;;;;;;;;5056143;28;20047;-66
2022/10/16 12:23:47;;;;;;;6.47;3.88;;;;;;;;;;5056098;28;20104;-67
2022/10/16 12:26:12;;;;;;;4.88;3.67;;;;;;;;;;5056072;28;20037;-67
2022/10/16 12:28:39;;;;;;;6.45;3.42;;;;;;;;;;5055758;28;20423;-65
2022/10/16 12:31:08;;;;;;;4.07;3.25;;;;;;;;;;5055915;28;20025;-69
2022/10/16 12:33:55;;;;;;;4.93;3.75;;;;;;;;;;5055911;28;20025;-68
2022/10/16 12:36:35;;;;;;;4.43;3.50;;;;;;;;;;5055118;28;20056;-65
2022/10/16 12:39:01;;;;;;;15.15;4.03;;;;;;;;;;5055411;28;20485;-67
2022/10/16 12:41:30;;;;;;;5.57;3.58;;;;;;;;;;5055398;28;20302;-67
2022/10/16 12:43:56;;;;;;;5.97;3.30;;;;;;;;;;5055532;28;20032;-69
2022/10/16 12:46:44;;;;;;;4.50;4.10;;;;;;;;;;5055669;28;20386;-68
2022/10/16 12:49:12;;;;;;;5.53;3.72;;;;;;;;;;5055134;28;20041;-68
2022/10/16 12:51:38;;;;;;;7.43;3.78;;;;;;;;;;5055539;28;20025;-66
2022/10/16 12:54:05;;;;;;;5.00;3.83;;;;;;;;;;5055259;28;20377;-66
2022/10/16 12:56:58;;;;;;;4.07;3.42;;;;;;;;;;5055183;28;20048;-72
2022/10/16 12:59:43;;;;;;;4.75;3.40;;;;;;;;;;5054686;28;20464;-67
2022/10/16 13:02:20;;;;;;;6.32;3.60;;;;;;;;;;5055415;28;20036;-64
2022/10/16 13:05:10;;;;;;;5.63;3.47;;;;;;;;;;5055323;28;20029;-69
2022/10/16 13:07:54;;;;;;;;;;;;;;;;;;5055715;28;20111;-68
2022/10/16 13:10:45;;;;;;;4.22;3.60;;;;;;;;;;5055212;28;19912;-67
2022/10/16 13:13:30;;;;;;;7.30;3.40;;;;;;;;;;5054829;28;20032;-66
2022/10/16 13:16:10;;;;;;;4.88;3.33;;;;;;;;;;5055257;28;20029;-68
2022/10/16 13:18:45;;;;;;;4.43;3.38;;;;;;;;;;5054773;28;20533;-71
2022/10/16 13:21:43;;;;;;;6.38;3.45;;;;;;;;;;5055100;28;20037;-70
2022/10/16 13:24:13;;;;;;;5.13;3.50;;;;;;;;;;5054980;28;20025;-70
2022/10/16 13:26:56;;;;;;;8.27;3.67;;;;;;;;;;5054979;28;20021;-70
2022/10/16 13:29:22;;;;;;;4.22;3.63;;;;;;;;;;5054697;28;20076;-70
2022/10/16 13:31:47;;;;;;;4.47;3.60;;;;;;;;;;5054536;28;20025;-66
2022/10/16 13:34:17;;;;;;;6.53;3.20;;;;;;;;;;5054871;28;20059;-69
2022/10/16 13:36:46;;;;;;;4.60;3.40;;;;;;;;;;5055116;28;20417;-68
2022/10/16 13:39:26;;;;;;;7.10;3.92;;;;;;;;;;5054365;28;20310;-72
2022/10/16 13:42:25;;;;;;;4.32;3.42;;;;;;;;;;5054462;28;20116;-65
2022/10/16 13:44:53;;;;;;;6.25;3.63;;;;;;;;;;5054496;28;20041;-68
2022/10/16 13:47:26;;;;;;;4.82;3.45;;;;;;;;;;5054589;28;20078;-67
2022/10/16 13:50:13;;;;;;;4.63;3.40;;;;;;;;;;5054535;28;20104;-66
2022/10/16 13:52:39;;;;;;;6.53;4.15;;;;;;;;;;5054513;28;20102;-66
2022/10/16 13:55:14;;;;;;;5.47;3.42;;;;;;;;;;5053997;28;20496;-69
2022/10/16 13:57:39;;;;;;;5.15;3.50;;;;;;;;;;5054285;28;20025;-64
2022/10/16 14:00:29;;;;;;;5.65;3.85;;;;;;;;;;5054303;28;20365;-66
2022/10/16 14:03:05;;;;;;;6.40;3.90;;;;;;;;;;5053985;28;20070;-65
2022/10/16 14:05:31;;;;;;;3.80;3.33;;;;;;;;;;5053920;28;20504;-66
2022/10/16 14:07:57;;;;;;;4.53;3.20;;;;;;;;;;5054163;28;20468;-65
2022/10/16 14:10:27;;;;;;;4.15;3.67;;;;;;;;;;5054091;28;20021;-64
2022/10/16 14:13:02;;;;;;;4.50;3.45;;;;;;;;;;5053173;28;20035;-66
2022/10/16 14:15:30;;;;;;;5.65;3.30;;;;;;;;;;5052836;28;20033;-65
2022/10/16 14:17:56;;;;;;;4.38;3.33;;;;;;;;;;5053541;28;20029;-65
2022/10/16 14:20:26;;;;;;;5.18;3.40;;;;;;;;;;5053961;28;20039;-65
2022/10/16 14:23:20;;;;;;;5.55;4.00;;;;;;;;;;5053562;28;20076;-65
2022/10/16 14:25:46;;;;;;;4.68;3.83;;;;;;;;;;5045233;28;20037;-67
2022/10/16 14:28:18;;;;;;;6.40;4.00;;;;;;;;;;5053417;28;20047;-65
2022/10/16 14:31:01;;;;;;;7.05;3.70;;;;;;;;;;5053698;28;20025;-66
2022/10/16 14:33:29;;;;;;;6.72;3.63;;;;;;;;;;5053421;28;20021;-65
2022/10/16 14:36:12;;;;;;;6.40;3.65;;;;;;;;;;5053612;28;20163;-65
2022/10/16 14:38:39;;;;;;;7.75;3.90;;;;;;;;;;5053511;28;20382;-69
2022/10/16 14:41:05;;;;;;;4.55;3.50;;;;;;;;;;5053511;28;20472;-66
2022/10/16 14:43:39;;;;;;;5.95;3.70;;;;;;;;;;5053459;28;20369;-66
2022/10/16 14:46:21;;;;;;;7.57;3.33;;;;;;;;;;5053496;28;20039;-67
2022/10/16 14:48:49;;;;;;;6.15;3.50;;;;;;;;;;5053088;28;20017;-67
2022/10/16 14:51:17;;;;;;;6.38;3.33;;;;;;;;;;5053387;28;20040;-65
2022/10/16 14:53:42;;;;;;;5.07;3.55;;;;;;;;;;5053418;28;20060;-67
2022/10/16 14:56:14;;;;;;;6.20;3.25;;;;;;;;;;5052898;28;20083;-67
2022/10/16 14:58:39;;;;;;;4.20;3.60;;;;;;;;;;5052962;28;20028;-69
2022/10/16 15:01:08;;;;;;;3.50;3.20;;;;;;;;;;5051868;28;20049;-65
2022/10/16 15:03:33;;;;;;;4.72;3.63;;;;;;;;;;5053114;28;20021;-65
2022/10/16 15:05:59;;;;;;;3.75;3.05;;;;;;;;;;5053058;28;20048;-65